PAKF

Details ICAO PAKF (KFP)
Name False Pass
Region USA (Alaska)
Timezone America/Nome (UTC-9.0)
Plans Departing 6
Arriving 3
Stats Elevation 20 ft / 6 m (AMSL)
Location 54.847446° -163.410322°
Runways 1
Magnetic Variation 10.465° E
Sunrise 2017-12-17 19:14:56 UTC / 2017-12-17 10:14:56 Local
Sunset 2017-12-18 02:27:46 UTC / 2017-12-17 17:27:46 Local
Advertisement - Login to hide

Runways

ID Width Length Bearing (true) Bearing (mag) Surface Threshold Offset Overrun Length
13 80 ft / 24 m 2,102 ft / 641 m 146.00° 135.53° Gravel 0 ft / 0 m 0 ft / 0 m
31 80 ft / 24 m 2,102 ft / 641 m 326.00° 315.53° Gravel 0 ft / 0 m 0 ft / 0 m

Map

Weather


0- 5 10 15 20 25 30 35+ Temperature / ° C

Clouds and Precipitation
Forecast for 2017-12-17 18:00 UTC. Updated 26 minutes ago

Ground ~20,000 ft ~40,000 ft Winds

METAR

PAKF 171701Z AUTO 31018G29KT 10SM UP 03/M04 A2990 RMK AO2 PK WND 30042/1602 RAE1651UPB1651 SLP221 P0000 T00281044 $

TAF

Not found
Warning: Do not use this data for real-world aviation or navigation. No guarantee of current accuracy is given.